createdAt,value
2023-03-06T00:00:50.194Z,11.27
2023-03-06T00:03:17.561Z,12.05
2023-03-06T00:05:44.582Z,11.93
2023-03-06T00:08:14.538Z,11.06
2023-03-06T00:10:42.573Z,12.07
2023-03-06T00:13:12.819Z,11.48
2023-03-06T00:15:40.251Z,10.23
2023-03-06T00:18:08.386Z,10.53
2023-03-06T00:20:36.424Z,11.52
2023-03-06T00:23:03.956Z,9.93
2023-03-06T00:25:31.234Z,9.57
2023-03-06T00:27:58.236Z,8.98
2023-03-06T00:30:26.804Z,9.58
2023-03-06T00:32:54.035Z,11.19
2023-03-06T00:35:21.424Z,11.09
2023-03-06T00:37:48.822Z,10.90
2023-03-06T00:40:18.445Z,10.46
2023-03-06T00:42:46.168Z,12.39
2023-03-06T00:45:13.425Z,11.64
2023-03-06T00:47:41.797Z,13.04
2023-03-06T00:50:10.209Z,12.20
2023-03-06T00:52:37.073Z,12.41
2023-03-06T00:55:05.274Z,11.61
2023-03-06T00:57:32.072Z,11.04
2023-03-06T00:59:59.018Z,11.63
2023-03-06T01:02:26.194Z,12.04
2023-03-06T01:04:54.493Z,11.81
2023-03-06T01:07:21.418Z,11.81
2023-03-06T01:09:48.256Z,11.34
2023-03-06T01:12:15.236Z,10.86
2023-03-06T01:14:42.104Z,12.56
2023-03-06T01:17:08.865Z,13.34
2023-03-06T01:19:35.629Z,12.08
2023-03-06T01:22:05.526Z,11.41
2023-03-06T01:24:33.641Z,10.61
2023-03-06T01:27:00.814Z,10.65
2023-03-06T01:29:27.719Z,12.39
2023-03-06T01:31:54.468Z,13.68
2023-03-06T01:34:21.338Z,12.81
2023-03-06T01:36:48.240Z,13.19
2023-03-06T01:39:16.948Z,12.68
2023-03-06T01:41:43.978Z,12.46
2023-03-06T01:44:12.604Z,11.27
2023-03-06T01:46:40.509Z,9.28
2023-03-06T01:49:12.700Z,11.05
2023-03-06T01:51:43.847Z,13.28
2023-03-06T01:54:15.935Z,11.71
2023-03-06T01:56:46.735Z,11.47
2023-03-06T01:59:14.390Z,12.25
2023-03-06T02:01:42.021Z,11.49
2023-03-06T02:04:10.609Z,10.24
2023-03-06T02:06:40.144Z,11.84
2023-03-06T02:09:07.293Z,12.62
2023-03-06T02:11:34.445Z,11.19
2023-03-06T02:14:03.663Z,12.12
2023-03-06T02:16:33.040Z,12.08
2023-03-06T02:19:02.881Z,11.32
2023-03-06T02:21:34.241Z,12.24
2023-03-06T02:24:11.094Z,12.69
2023-03-06T02:26:42.206Z,12.33
2023-03-06T02:29:09.399Z,10.33
2023-03-06T02:31:36.241Z,10.78
2023-03-06T02:34:07.255Z,12.64
2023-03-06T02:36:36.875Z,13.14
2023-03-06T02:39:04.963Z,14.23
2023-03-06T02:41:31.782Z,12.50
2023-03-06T02:44:00.014Z,12.31
2023-03-06T02:46:26.773Z,11.45
2023-03-06T02:48:53.668Z,10.61
2023-03-06T02:51:20.688Z,11.37
2023-03-06T02:53:47.624Z,11.48
2023-03-06T02:56:15.149Z,12.94
2023-03-06T02:58:42.329Z,11.95
2023-03-06T03:01:10.675Z,12.44
2023-03-06T03:03:37.715Z,12.05
2023-03-06T03:06:05.936Z,10.77
2023-03-06T03:08:33.164Z,11.17
2023-03-06T03:11:00.865Z,11.38
2023-03-06T03:13:27.876Z,10.59
2023-03-06T03:15:58.870Z,10.67
2023-03-06T03:18:28.347Z,12.70
2023-03-06T03:20:55.920Z,14.55
2023-03-06T03:23:23.285Z,14.81
2023-03-06T03:25:50.613Z,13.01
2023-03-06T03:28:18.700Z,12.61
2023-03-06T03:30:45.998Z,13.36
2023-03-06T03:33:15.761Z,12.66
2023-03-06T03:35:44.056Z,13.77
2023-03-06T03:38:10.821Z,13.42
2023-03-06T03:40:38.940Z,13.63
2023-03-06T03:43:05.903Z,11.81
2023-03-06T03:45:33.504Z,11.93
2023-03-06T03:48:00.252Z,12.15
2023-03-06T03:50:27.083Z,11.91
2023-03-06T03:52:55.228Z,12.59
2023-03-06T03:55:22.101Z,14.10
2023-03-06T03:57:50.425Z,14.28
2023-03-06T04:00:18.530Z,16.75
2023-03-06T04:02:46.395Z,16.74
2023-03-06T04:05:15.378Z,18.04
2023-03-06T04:07:42.507Z,17.17
2023-03-06T04:10:12.499Z,15.22
2023-03-06T04:12:39.500Z,14.90
2023-03-06T04:15:08.032Z,13.65
2023-03-06T04:17:34.851Z,13.41
2023-03-06T04:20:01.737Z,15.04
2023-03-06T04:22:28.695Z,14.67
2023-03-06T04:24:55.875Z,13.83
2023-03-06T04:27:24.103Z,15.62
2023-03-06T04:29:51.113Z,16.29
2023-03-06T04:32:20.306Z,16.00
2023-03-06T04:34:48.220Z,14.13
2023-03-06T04:37:20.043Z,13.87
2023-03-06T04:39:47.668Z,13.96
2023-03-06T04:42:15.536Z,13.77
2023-03-06T04:44:44.389Z,14.40
2023-03-06T04:47:11.666Z,15.54
2023-03-06T04:49:38.937Z,15.70
2023-03-06T04:52:06.385Z,14.89
2023-03-06T04:54:33.830Z,15.54
2023-03-06T04:57:04.290Z,14.51
2023-03-06T04:59:31.227Z,14.88
2023-03-06T05:02:00.798Z,14.51
2023-03-06T05:04:28.590Z,17.09
2023-03-06T05:06:55.957Z,15.98
2023-03-06T05:09:23.910Z,15.03
2023-03-06T05:11:51.095Z,15.55
2023-03-06T05:14:18.539Z,15.88
2023-03-06T05:16:46.644Z,15.01
2023-03-06T05:19:16.599Z,16.88
2023-03-06T05:21:44.618Z,16.82
2023-03-06T05:24:12.450Z,17.04
2023-03-06T05:26:41.178Z,16.64
2023-03-06T05:29:09.378Z,17.87
2023-03-06T05:31:39.097Z,17.07
2023-03-06T05:34:06.904Z,19.81
2023-03-06T05:36:36.270Z,20.62
2023-03-06T05:39:03.462Z,20.09
2023-03-06T05:41:30.695Z,19.92
2023-03-06T05:43:57.778Z,18.91
2023-03-06T05:46:25.733Z,18.07
2023-03-06T05:48:54.768Z,17.78
2023-03-06T05:51:22.347Z,17.52
2023-03-06T05:53:51.107Z,19.79
2023-03-06T05:56:18.011Z,19.90
2023-03-06T05:58:44.965Z,17.68
2023-03-06T06:01:17.070Z,19.76
2023-03-06T06:03:44.469Z,17.94
2023-03-06T06:06:13.111Z,17.48
2023-03-06T06:08:40.213Z,17.95
2023-03-06T06:11:10.198Z,17.70
2023-03-06T06:13:37.654Z,17.54
2023-03-06T06:16:08.674Z,18.56
2023-03-06T06:18:40.586Z,17.86
2023-03-06T06:21:09.238Z,17.91
2023-03-06T06:23:36.508Z,18.05
2023-03-06T06:26:05.991Z,19.50
2023-03-06T06:28:35.326Z,18.33
2023-03-06T06:31:09.971Z,18.22
2023-03-06T06:33:37.534Z,17.83
2023-03-06T06:36:05.307Z,17.88
2023-03-06T06:38:32.532Z,18.21
2023-03-06T06:41:33.007Z,19.07
2023-03-06T06:43:48.681Z,20.05
2023-03-06T06:46:56.121Z,19.58
2023-03-06T06:49:03.577Z,20.91
2023-03-06T06:51:31.200Z,19.80
2023-03-06T06:53:58.232Z,18.40
2023-03-06T06:56:28.012Z,18.87
2023-03-06T06:59:06.867Z,18.79
2023-03-06T07:01:41.161Z,19.12
2023-03-06T07:04:08.291Z,18.98
2023-03-06T07:06:35.437Z,18.33
2023-03-06T07:09:02.765Z,17.55
2023-03-06T07:11:30.199Z,18.03
2023-03-06T07:13:59.142Z,18.19
2023-03-06T07:16:26.310Z,21.11
2023-03-06T07:18:53.521Z,23.50
2023-03-06T07:21:20.849Z,22.01
2023-03-06T07:23:48.232Z,20.79
2023-03-06T07:26:15.088Z,19.08
2023-03-06T07:28:51.842Z,20.10
2023-03-06T07:31:21.649Z,19.83
2023-03-06T07:33:48.465Z,19.57
2023-03-06T07:36:15.324Z,19.14
2023-03-06T07:38:42.815Z,18.61
2023-03-06T07:41:09.893Z,19.04
2023-03-06T07:43:36.644Z,18.12
2023-03-06T07:46:03.528Z,15.90
2023-03-06T07:48:31.692Z,15.89
2023-03-06T07:51:00.430Z,17.02
2023-03-06T07:53:27.686Z,16.22
2023-03-06T07:55:54.964Z,19.83
2023-03-06T07:58:21.982Z,17.59
2023-03-06T08:00:48.958Z,17.53
2023-03-06T08:03:15.830Z,17.14
2023-03-06T08:05:44.097Z,18.39
2023-03-06T08:08:11.083Z,18.30
2023-03-06T08:10:38.398Z,16.98
2023-03-06T08:13:05.159Z,16.75
2023-03-06T08:15:31.904Z,16.74
2023-03-06T08:17:58.787Z,15.44
2023-03-06T08:20:25.651Z,15.60
2023-03-06T08:22:53.899Z,17.31
2023-03-06T08:25:20.699Z,15.74
2023-03-06T08:27:47.484Z,15.74
2023-03-06T08:30:14.962Z,17.83
2023-03-06T08:32:44.545Z,18.24
2023-03-06T08:35:11.638Z,17.01
2023-03-06T08:37:40.460Z,17.42
2023-03-06T08:40:11.352Z,15.92
2023-03-06T08:42:38.263Z,15.25
2023-03-06T08:45:06.560Z,17.10
2023-03-06T08:47:34.857Z,17.11
2023-03-06T08:50:01.753Z,19.31
2023-03-06T08:52:28.732Z,18.57
2023-03-06T08:54:58.135Z,18.58
2023-03-06T08:57:26.356Z,16.74
2023-03-06T08:59:53.105Z,16.43
2023-03-06T09:02:20.036Z,16.81
2023-03-06T09:04:47.399Z,16.95
2023-03-06T09:07:14.299Z,16.26
2023-03-06T09:09:41.157Z,16.44
2023-03-06T09:12:08.037Z,16.06
2023-03-06T09:14:36.145Z,17.17
2023-03-06T09:17:02.972Z,16.85
2023-03-06T09:19:29.734Z,18.18
2023-03-06T09:21:58.826Z,17.63
2023-03-06T09:24:26.542Z,18.68
2023-03-06T09:26:55.983Z,17.69
2023-03-06T09:29:23.101Z,18.41
2023-03-06T09:31:51.812Z,16.85
2023-03-06T09:34:19.924Z,16.21
2023-03-06T09:36:56.764Z,16.00
2023-03-06T09:39:25.485Z,17.28
2023-03-06T09:41:53.042Z,15.55
2023-03-06T09:44:22.676Z,16.10
2023-03-06T09:47:18.465Z,15.61
2023-03-06T09:49:59.572Z,15.16
2023-03-06T09:52:33.895Z,16.99
2023-03-06T09:57:38.247Z,16.10
2023-03-06T10:00:12.551Z,17.39
2023-03-06T10:05:13.748Z,15.12
2023-03-06T10:07:48.945Z,17.06
2023-03-06T10:10:19.947Z,17.04
2023-03-06T10:12:53.750Z,17.42
2023-03-06T10:15:25.841Z,18.76
2023-03-06T10:17:54.513Z,17.35
2023-03-06T10:20:23.763Z,18.88
2023-03-06T10:23:24.446Z,18.76
2023-03-06T10:25:59.326Z,19.14
2023-03-06T10:28:29.837Z,17.68
2023-03-06T10:31:04.220Z,17.28
2023-03-06T10:33:44.711Z,17.86
2023-03-06T10:36:14.723Z,17.66
2023-03-06T10:38:43.286Z,16.11
2023-03-06T10:41:22.749Z,16.29
2023-03-06T10:44:23.058Z,16.49
2023-03-06T10:46:53.093Z,16.49
2023-03-06T10:49:30.632Z,16.80
2023-03-06T10:52:00.888Z,16.32
2023-03-06T10:54:29.140Z,16.90
2023-03-06T10:56:56.393Z,18.56
2023-03-06T10:59:25.011Z,17.48
2023-03-06T11:01:53.754Z,16.80
2023-03-06T11:04:26.230Z,16.28
2023-03-06T11:07:14.371Z,16.39
2023-03-06T11:09:42.136Z,17.40
2023-03-06T11:12:21.571Z,17.63
2023-03-06T11:15:13.522Z,18.80
2023-03-06T11:17:50.963Z,19.78
2023-03-06T11:20:21.396Z,19.42
2023-03-06T11:22:52.356Z,19.46
2023-03-06T11:25:22.339Z,19.62
2023-03-06T11:27:55.625Z,18.64
2023-03-06T11:30:25.020Z,16.70
2023-03-06T11:32:55.458Z,16.92
2023-03-06T11:35:25.544Z,18.76
2023-03-06T11:37:55.331Z,18.51
2023-03-06T11:40:29.881Z,18.97
2023-03-06T11:43:06.084Z,21.25
2023-03-06T11:45:38.117Z,19.76
2023-03-06T11:48:20.975Z,21.48
2023-03-06T11:50:51.551Z,21.54
2023-03-06T11:53:19.876Z,21.39
2023-03-06T11:55:57.058Z,18.94
2023-03-06T11:58:45.188Z,19.14
2023-03-06T12:01:22.809Z,20.71
2023-03-06T12:04:02.181Z,19.70
2023-03-06T12:06:44.205Z,19.60
2023-03-06T12:09:26.379Z,19.13
2023-03-06T12:12:09.398Z,21.11
2023-03-06T12:14:48.630Z,19.91
2023-03-06T12:17:22.698Z,22.41
2023-03-06T12:20:01.612Z,20.64
2023-03-06T12:22:53.410Z,19.77
2023-03-06T12:25:34.950Z,19.46
2023-03-06T12:28:27.119Z,21.19
2023-03-06T12:31:21.158Z,20.20
2023-03-06T12:33:57.689Z,19.47
2023-03-06T12:36:41.387Z,21.25
2023-03-06T12:39:17.365Z,21.47
2023-03-06T12:41:58.632Z,19.94
2023-03-06T12:44:52.708Z,20.53
2023-03-06T12:47:22.657Z,20.27
2023-03-06T12:49:54.552Z,35.02
2023-03-06T12:52:29.661Z,28.51
2023-03-06T12:55:00.611Z,23.35
2023-03-06T12:57:27.675Z,19.40
2023-03-06T12:59:54.718Z,18.38
2023-03-06T13:02:46.187Z,18.46
2023-03-06T13:05:35.310Z,19.18
2023-03-06T13:08:38.049Z,18.15
2023-03-06T13:11:26.469Z,16.72
2023-03-06T13:13:53.693Z,17.02
2023-03-06T13:16:29.142Z,17.30
2023-03-06T13:19:03.371Z,17.59
2023-03-06T13:22:13.226Z,16.20
2023-03-06T13:24:40.001Z,16.06
2023-03-06T13:27:11.110Z,14.30
2023-03-06T13:30:23.023Z,13.61
2023-03-06T13:32:51.014Z,13.44
2023-03-06T13:35:56.960Z,13.76
2023-03-06T13:38:53.472Z,13.65
2023-03-06T13:41:53.337Z,16.09
2023-03-06T13:44:50.571Z,16.81
2023-03-06T13:47:55.771Z,16.99
2023-03-06T13:50:33.091Z,15.16
2023-03-06T13:53:11.776Z,14.66
2023-03-06T13:55:50.718Z,14.37
2023-03-06T13:58:33.384Z,12.98
2023-03-06T14:01:35.803Z,13.13
2023-03-06T14:04:39.004Z,14.13
2023-03-06T14:07:22.773Z,15.00
2023-03-06T14:09:59.551Z,15.02
2023-03-06T14:12:31.407Z,14.40
2023-03-06T14:15:01.397Z,14.02
2023-03-06T14:17:32.185Z,13.29
2023-03-06T14:20:02.554Z,13.12
2023-03-06T14:22:29.316Z,13.78
2023-03-06T14:24:59.847Z,13.51
2023-03-06T14:27:43.550Z,14.56
2023-03-06T14:30:14.013Z,13.58
2023-03-06T14:32:42.949Z,15.17
2023-03-06T14:35:26.123Z,14.99
2023-03-06T14:37:56.570Z,14.11
2023-03-06T14:40:29.955Z,14.62
2023-03-06T14:43:20.039Z,14.81
2023-03-06T14:45:56.389Z,14.17
2023-03-06T14:48:26.696Z,14.20
2023-03-06T14:50:55.269Z,12.34
2023-03-06T14:53:27.477Z,12.94
2023-03-06T14:55:56.809Z,13.53
2023-03-06T14:58:28.884Z,14.25
2023-03-06T15:01:02.252Z,11.97
2023-03-06T15:03:40.366Z,12.15
2023-03-06T15:06:08.744Z,10.71
2023-03-06T15:08:37.561Z,11.94
2023-03-06T15:11:06.868Z,11.97
2023-03-06T15:13:35.152Z,12.25
2023-03-06T15:16:04.085Z,11.63
2023-03-06T15:18:34.509Z,11.36
2023-03-06T15:21:10.646Z,12.63
2023-03-06T15:23:39.484Z,11.57
2023-03-06T15:26:21.585Z,12.34
2023-03-06T15:29:00.001Z,12.53
2023-03-06T15:31:34.237Z,13.06
2023-03-06T15:34:13.978Z,12.60
2023-03-06T15:36:43.150Z,11.61
2023-03-06T15:39:31.508Z,11.18
2023-03-06T15:41:59.635Z,11.62
2023-03-06T15:44:28.167Z,13.83
2023-03-06T15:47:08.405Z,12.45
2023-03-06T15:49:39.297Z,13.46
2023-03-06T15:52:07.485Z,11.21
2023-03-06T15:54:34.969Z,12.92
2023-03-06T15:57:04.221Z,15.69
2023-03-06T15:59:35.350Z,14.38
2023-03-06T16:02:10.119Z,13.28
2023-03-06T16:04:38.275Z,12.59
2023-03-06T16:07:05.236Z,12.82
2023-03-06T16:09:32.005Z,13.07
2023-03-06T16:11:59.446Z,11.78
2023-03-06T16:14:28.113Z,12.04
2023-03-06T16:16:55.029Z,10.72
2023-03-06T16:19:43.594Z,11.41
2023-03-06T16:22:12.080Z,11.44
2023-03-06T16:24:39.171Z,11.94
2023-03-06T16:27:06.380Z,11.36
2023-03-06T16:29:35.087Z,12.75
2023-03-06T16:32:02.367Z,11.37
2023-03-06T16:34:29.220Z,12.29
2023-03-06T16:36:57.457Z,12.32
2023-03-06T16:39:25.024Z,12.37
2023-03-06T16:41:52.899Z,12.00
2023-03-06T16:44:21.334Z,11.34
2023-03-06T16:46:50.556Z,10.16
2023-03-06T16:49:19.654Z,9.90
2023-03-06T16:51:46.894Z,12.12
2023-03-06T16:54:16.300Z,10.90
2023-03-06T16:56:44.032Z,10.71
2023-03-06T16:59:12.211Z,11.75
2023-03-06T17:01:40.812Z,12.80
2023-03-06T17:04:07.736Z,14.50
2023-03-06T17:06:34.594Z,14.76
2023-03-06T17:09:01.376Z,14.07
2023-03-06T17:11:29.687Z,13.40
2023-03-06T17:13:56.523Z,14.35
2023-03-06T17:16:23.604Z,14.39
2023-03-06T17:18:50.572Z,16.26
2023-03-06T17:21:17.548Z,14.84
2023-03-06T17:23:44.898Z,20.69
2023-03-06T17:26:13.492Z,30.79
2023-03-06T17:28:42.531Z,35.93
2023-03-06T17:31:13.951Z,27.47
2023-03-06T17:33:40.987Z,24.52
2023-03-06T17:36:08.784Z,20.97
2023-03-06T17:38:35.738Z,16.91
2023-03-06T17:41:03.181Z,16.50
2023-03-06T17:43:30.327Z,13.76
2023-03-06T17:46:02.389Z,13.89
2023-03-06T17:48:29.170Z,11.54
2023-03-06T17:50:56.838Z,10.72
2023-03-06T17:53:23.694Z,9.64
2023-03-06T17:55:50.635Z,9.91
2023-03-06T17:58:17.452Z,10.11
2023-03-06T18:00:44.250Z,10.68
2023-03-06T18:03:12.506Z,9.53
2023-03-06T18:05:39.263Z,9.85
2023-03-06T18:08:06.576Z,10.32
2023-03-06T18:10:33.304Z,10.08
2023-03-06T18:13:00.135Z,9.90
2023-03-06T18:15:26.872Z,11.23
2023-03-06T18:17:53.612Z,10.91
2023-03-06T18:20:21.766Z,12.66
2023-03-06T18:22:48.582Z,15.04
2023-03-06T18:25:15.302Z,16.05
2023-03-06T18:27:42.325Z,16.01
2023-03-06T18:30:10.355Z,14.74
2023-03-06T18:32:37.165Z,14.55
2023-03-06T18:35:04.503Z,12.78
2023-03-06T18:37:32.690Z,12.08
2023-03-06T18:39:59.401Z,13.10
2023-03-06T18:42:26.118Z,12.73
2023-03-06T18:44:52.905Z,13.18
2023-03-06T18:47:20.746Z,12.30
2023-03-06T18:49:47.501Z,10.92
2023-03-06T18:52:14.220Z,9.11
2023-03-06T18:54:42.564Z,8.18
2023-03-06T18:57:09.289Z,8.38
2023-03-06T18:59:36.152Z,11.28
2023-03-06T19:02:03.300Z,12.94
2023-03-06T19:04:30.100Z,16.70
2023-03-06T19:06:56.913Z,13.88
2023-03-06T19:09:24.784Z,17.92
2023-03-06T19:11:56.276Z,21.51
2023-03-06T19:14:24.104Z,29.82
2023-03-06T19:16:51.026Z,28.50
2023-03-06T19:19:18.108Z,29.26
2023-03-06T19:21:45.820Z,28.02
2023-03-06T19:24:12.621Z,27.79
2023-03-06T19:26:39.884Z,27.40
2023-03-06T19:29:08.272Z,25.18
2023-03-06T19:31:35.051Z,21.72
2023-03-06T19:34:02.245Z,20.17
2023-03-06T19:36:32.370Z,19.21
2023-03-06T19:39:02.560Z,17.59
2023-03-06T19:41:29.683Z,16.60
2023-03-06T19:43:58.551Z,14.47
2023-03-06T19:46:27.227Z,14.13
2023-03-06T19:48:55.075Z,13.22
2023-03-06T19:51:22.471Z,13.68
2023-03-06T19:53:49.185Z,14.37
2023-03-06T19:56:18.334Z,14.56
2023-03-06T19:58:45.234Z,15.66
2023-03-06T20:01:13.933Z,15.52
2023-03-06T20:03:42.232Z,16.39
2023-03-06T20:06:14.129Z,13.81
2023-03-06T20:08:41.353Z,13.44
2023-03-06T20:11:15.369Z,13.46
2023-03-06T20:13:47.215Z,15.79
2023-03-06T20:16:14.777Z,16.42
2023-03-06T20:18:43.677Z,17.42
2023-03-06T20:21:10.919Z,20.19
2023-03-06T20:23:37.694Z,18.29
2023-03-06T20:26:06.052Z,18.89
2023-03-06T20:28:33.381Z,20.02
2023-03-06T20:31:06.159Z,19.84
2023-03-06T20:33:33.081Z,18.86
2023-03-06T20:36:01.401Z,18.49
2023-03-06T20:38:28.508Z,19.50
2023-03-06T20:40:55.230Z,19.41
2023-03-06T20:43:22.015Z,16.71
2023-03-06T20:45:56.694Z,19.55
2023-03-06T20:48:23.536Z,17.82
2023-03-06T20:50:59.193Z,17.19
2023-03-06T20:53:27.612Z,17.35
2023-03-06T20:55:54.504Z,18.14
2023-03-06T20:58:21.330Z,18.19
2023-03-06T21:00:48.099Z,17.28
2023-03-06T21:03:14.937Z,17.84
2023-03-06T21:05:41.668Z,16.03
2023-03-06T21:08:08.524Z,17.27
2023-03-06T21:10:37.731Z,17.93
2023-03-06T21:13:04.468Z,16.92
2023-03-06T21:15:31.598Z,16.96
2023-03-06T21:17:58.371Z,18.38
2023-03-06T21:20:25.170Z,18.02
2023-03-06T21:22:51.972Z,17.16
2023-03-06T21:25:18.787Z,16.27
2023-03-06T21:27:47.007Z,16.67
2023-03-06T21:30:14.222Z,17.76
2023-03-06T21:32:41.127Z,16.48
2023-03-06T21:35:08.245Z,15.78
2023-03-06T21:37:35.100Z,17.58
2023-03-06T21:40:02.163Z,17.87
2023-03-06T21:42:28.981Z,19.05
2023-03-06T21:44:57.083Z,18.83
2023-03-06T21:47:23.897Z,19.64
2023-03-06T21:49:50.702Z,18.06
2023-03-06T21:52:17.446Z,17.88
2023-03-06T21:54:44.160Z,16.94
2023-03-06T21:57:10.934Z,15.60
2023-03-06T21:59:37.894Z,16.99
2023-03-06T22:02:06.163Z,16.84
2023-03-06T22:04:33.037Z,18.17
2023-03-06T22:06:59.859Z,17.77
2023-03-06T22:09:26.558Z,16.70
2023-03-06T22:11:53.328Z,14.65
2023-03-06T22:14:20.125Z,14.45
2023-03-06T22:16:46.946Z,15.58
2023-03-06T22:19:15.107Z,15.98
2023-03-06T22:21:41.844Z,15.14
2023-03-06T22:24:08.834Z,16.02
2023-03-06T22:26:35.562Z,16.38
2023-03-06T22:29:02.344Z,17.23
2023-03-06T22:31:29.309Z,16.50
2023-03-06T22:33:57.753Z,15.64
2023-03-06T22:36:26.851Z,14.70
2023-03-06T22:38:55.814Z,13.71
2023-03-06T22:41:23.492Z,14.36
2023-03-06T22:43:50.201Z,14.35
2023-03-06T22:46:17.945Z,16.38
2023-03-06T22:48:44.878Z,17.42
2023-03-06T22:51:13.373Z,18.92
2023-03-06T22:53:42.273Z,20.08
2023-03-06T22:56:11.282Z,19.71
2023-03-06T22:58:38.738Z,19.50
2023-03-06T23:01:07.366Z,19.88
2023-03-06T23:03:35.300Z,19.08
2023-03-06T23:06:05.918Z,17.86
2023-03-06T23:08:32.725Z,17.95
2023-03-06T23:11:00.970Z,19.61
2023-03-06T23:13:27.701Z,17.55
2023-03-06T23:15:54.464Z,19.65
2023-03-06T23:18:21.192Z,21.18
2023-03-06T23:20:47.911Z,21.80
2023-03-06T23:23:14.638Z,21.96
2023-03-06T23:25:41.563Z,23.10
2023-03-06T23:28:09.772Z,22.61
2023-03-06T23:30:38.168Z,22.16
2023-03-06T23:33:05.050Z,22.43
2023-03-06T23:35:32.838Z,22.38
2023-03-06T23:37:59.632Z,21.50
2023-03-06T23:40:26.451Z,20.90
2023-03-06T23:42:53.211Z,19.51
2023-03-06T23:45:21.515Z,21.58
2023-03-06T23:47:48.358Z,21.21
2023-03-06T23:50:15.729Z,20.84
2023-03-06T23:52:42.453Z,19.93
2023-03-06T23:55:09.786Z,21.12
2023-03-06T23:57:36.511Z,22.72
